Time;durP1;ratioP1;P1;durP2;ratioP2;P2;SDS_P1;SDS_P2;PMS_P1;PMS_P2;Temp;Humidity;BMP_temperature;BMP_pressure;BME280_temperature;BME280_humidity;BME280_pressure;Samples;Min_cycle;Max_cycle;Signal;HPM_P1;HPM_P2
2023/12/09 00:00:46;;;;;;;60.15;25.33;;;7.80;99.90;;;;;;5072196;28;20500;-67
2023/12/09 00:03:14;;;;;;;67.53;25.80;;;7.80;99.90;;;;;;5070805;28;20044;-68
2023/12/09 00:05:41;;;;;;;57.58;24.15;;;7.80;99.90;;;;;;5071089;28;20044;-68
2023/12/09 00:08:08;;;;;;;51.95;23.40;;;7.80;99.90;;;;;;5070595;28;20098;-68
2023/12/09 00:10:35;;;;;;;54.70;21.90;;;7.80;99.90;;;;;;5071042;28;20040;-68
2023/12/09 00:13:02;;;;;;;60.38;23.98;;;7.70;99.90;;;;;;5068726;28;20124;-68
2023/12/09 00:15:29;;;;;;;61.65;24.05;;;7.80;99.90;;;;;;5070318;28;20485;-68
2023/12/09 00:17:56;;;;;;;57.50;24.60;;;7.70;99.90;;;;;;5070743;28;20109;-69
2023/12/09 00:20:24;;;;;;;53.58;23.75;;;7.70;99.90;;;;;;5070874;28;20056;-68
2023/12/09 00:22:51;;;;;;;59.40;23.65;;;7.70;99.90;;;;;;5070079;28;20059;-68
2023/12/09 00:25:18;;;;;;;54.13;22.45;;;7.70;99.90;;;;;;5070903;28;20052;-69
2023/12/09 00:27:45;;;;;;;64.65;25.15;;;7.70;99.90;;;;;;5070779;28;20056;-68
2023/12/09 00:30:13;;;;;;;65.10;23.88;;;7.70;99.90;;;;;;5071279;28;20093;-68
2023/12/09 00:32:39;;;;;;;57.03;25.60;;;7.70;99.90;;;;;;5068389;28;20492;-68
2023/12/09 00:35:07;;;;;;;59.35;24.38;;;7.80;99.90;;;;;;5070474;28;20109;-68
2023/12/09 00:37:35;;;;;;;61.28;24.25;;;7.80;99.90;;;;;;5069866;28;20580;-68
2023/12/09 00:40:02;;;;;;;58.08;24.35;;;7.70;99.90;;;;;;5070451;28;20107;-68
2023/12/09 00:42:29;;;;;;;56.05;23.45;;;7.80;99.90;;;;;;5070810;28;20056;-68
2023/12/09 00:44:56;;;;;;;58.80;22.20;;;7.80;99.90;;;;;;5069843;28;20292;-68
2023/12/09 00:47:22;;;;;;;65.30;23.17;;;7.80;99.90;;;;;;5070538;28;20059;-69
2023/12/09 00:49:49;;;;;;;53.70;22.63;;;7.70;99.90;;;;;;5070163;28;20056;-69
2023/12/09 00:52:16;;;;;;;62.13;24.10;;;7.80;99.90;;;;;;5070103;28;20060;-69
2023/12/09 00:54:44;;;;;;;56.38;23.08;;;7.80;99.90;;;;;;5070247;28;20106;-68
2023/12/09 00:57:11;;;;;;;56.00;21.70;;;7.80;99.90;;;;;;5067634;28;20501;-67
2023/12/09 00:59:38;;;;;;;50.10;21.85;;;7.70;99.90;;;;;;5070076;28;20101;-68
2023/12/09 01:02:05;;;;;;;57.10;22.70;;;7.80;99.90;;;;;;5070660;28;20041;-69
2023/12/09 01:04:32;;;;;;;50.53;20.88;;;7.80;99.90;;;;;;5069702;28;20040;-69
2023/12/09 01:06:59;;;;;;;49.83;20.58;;;7.70;99.90;;;;;;5070304;28;20088;-69
2023/12/09 01:09:26;;;;;;;57.78;21.17;;;7.80;99.90;;;;;;5070365;28;20056;-69
2023/12/09 01:11:54;;;;;;;45.78;21.38;;;7.80;99.90;;;;;;5070791;28;20127;-69
2023/12/09 01:14:21;;;;;;;51.88;22.02;;;7.80;99.90;;;;;;5071504;28;20041;-69
2023/12/09 01:16:48;;;;;;;53.13;21.75;;;7.70;99.90;;;;;;5070060;28;20048;-69
2023/12/09 01:19:15;;;;;;;57.08;21.45;;;7.80;99.90;;;;;;5069556;28;20049;-69
2023/12/09 01:21:42;;;;;;;57.60;20.88;;;7.80;99.90;;;;;;5070369;28;20105;-69
2023/12/09 01:24:09;;;;;;;49.10;20.00;;;7.80;99.90;;;;;;5070225;28;20056;-69
2023/12/09 01:26:35;;;;;;;48.67;20.40;;;7.80;99.90;;;;;;5069745;28;20066;-69
2023/12/09 01:29:04;;;;;;;51.05;20.65;;;7.90;99.90;;;;;;5070200;28;20044;-70
2023/12/09 01:31:31;;;;;;;49.10;20.95;;;7.90;99.90;;;;;;5070174;28;20409;-69
2023/12/09 01:33:58;;;;;;;54.25;21.80;;;7.90;99.90;;;;;;5101207;28;20086;-69
2023/12/09 01:36:25;;;;;;;53.22;20.25;;;7.90;99.90;;;;;;5069991;28;20135;-68
2023/12/09 01:38:52;;;;;;;47.75;18.92;;;7.90;99.90;;;;;;5069877;28;20045;-69
2023/12/09 01:41:19;;;;;;;51.20;20.52;;;7.90;99.90;;;;;;5069366;28;20056;-69
2023/12/09 01:43:48;;;;;;;42.42;19.88;;;7.90;99.90;;;;;;5070100;28;20058;-68
2023/12/09 01:46:18;;;;;;;39.92;18.55;;;7.90;99.90;;;;;;5069054;28;20044;-69
2023/12/09 01:48:45;;;;;;;48.83;20.17;;;7.90;99.90;;;;;;5069472;28;20041;-69
2023/12/09 01:51:13;;;;;;;51.35;19.90;;;7.90;99.90;;;;;;5069937;28;20135;-69
2023/12/09 01:53:40;;;;;;;36.08;17.50;;;7.90;99.90;;;;;;5067336;28;20570;-68
2023/12/09 01:56:10;;;;;;;51.25;20.63;;;8.00;99.90;;;;;;5070917;28;20048;-68
2023/12/09 01:58:38;;;;;;;50.60;19.10;;;7.90;99.90;;;;;;5069713;28;20052;-68
2023/12/09 02:01:06;;;;;;;45.15;17.65;;;8.00;99.90;;;;;;5070142;28;20056;-68
2023/12/09 02:03:35;;;;;;;42.25;18.55;;;8.00;99.90;;;;;;5073435;28;20094;-68
2023/12/09 02:06:02;;;;;;;46.72;18.58;;;8.00;99.90;;;;;;5073358;28;20394;-68
2023/12/09 02:08:29;;;;;;;53.97;17.75;;;8.20;99.90;;;;;;5073062;28;20045;-68
2023/12/09 02:11:09;;;;;;;50.95;19.48;;;7.90;99.90;;;;;;5073511;28;20102;-69
2023/12/09 02:13:44;;;;;;;42.45;17.90;;;8.00;99.90;;;;;;5073449;28;20056;-68
2023/12/09 02:16:15;;;;;;;45.33;17.40;;;8.00;99.90;;;;;;5072771;28;20048;-69
2023/12/09 02:18:45;;;;;;;48.75;17.73;;;8.00;99.90;;;;;;5070930;28;20090;-69
2023/12/09 02:21:11;;;;;;;41.55;16.83;;;8.00;99.90;;;;;;5072783;28;20086;-69
2023/12/09 02:23:40;;;;;;;37.65;16.23;;;8.00;99.90;;;;;;5072158;28;20052;-69
2023/12/09 02:26:13;;;;;;;40.83;16.83;;;8.00;99.90;;;;;;5072501;28;20086;-69
2023/12/09 02:28:46;;;;;;;42.53;18.35;;;8.00;99.90;;;;;;5072131;28;20395;-69
2023/12/09 02:31:18;;;;;;;40.75;17.25;;;8.00;99.90;;;;;;5073042;28;20381;-70
2023/12/09 02:33:45;;;;;;;42.22;16.85;;;8.00;99.90;;;;;;5072800;28;20548;-70
2023/12/09 02:36:18;;;;;;;47.88;17.98;;;8.00;99.90;;;;;;5072105;28;20097;-70
2023/12/09 02:38:47;;;;;;;44.70;16.73;;;8.00;99.90;;;;;;5072880;28;20075;-68
2023/12/09 02:41:16;;;;;;;47.80;19.27;;;8.00;99.90;;;;;;5072826;28;20099;-68
2023/12/09 02:43:46;;;;;;;46.35;17.58;;;8.00;99.90;;;;;;5072357;28;20389;-68
2023/12/09 02:46:13;;;;;;;39.70;17.45;;;8.00;99.90;;;;;;5072738;28;20044;-68
2023/12/09 02:48:40;;;;;;;43.47;18.75;;;8.00;99.90;;;;;;5072695;28;20128;-69
2023/12/09 02:51:08;;;;;;;44.67;18.63;;;8.00;99.90;;;;;;5071703;28;20052;-69
2023/12/09 02:53:35;;;;;;;41.60;16.67;;;8.00;99.90;;;;;;5070024;28;20053;-69
2023/12/09 02:56:03;;;;;;;45.85;17.00;;;8.10;99.90;;;;;;5072142;28;20102;-70
2023/12/09 02:58:30;;;;;;;36.90;16.65;;;8.00;99.90;;;;;;5071739;28;20052;-68
2023/12/09 03:00:57;;;;;;;42.22;17.85;;;8.00;99.90;;;;;;5072254;28;20056;-68
2023/12/09 03:03:24;;;;;;;43.70;17.60;;;8.00;99.90;;;;;;5072165;28;20048;-68
2023/12/09 03:05:51;;;;;;;43.72;16.88;;;8.00;99.90;;;;;;5071473;28;20052;-68
2023/12/09 03:08:17;;;;;;;43.97;17.75;;;8.00;99.90;;;;;;5072347;28;20102;-69
2023/12/09 03:10:44;;;;;;;43.92;17.38;;;8.10;99.90;;;;;;5071974;28;20102;-68
2023/12/09 03:13:13;;;;;;;38.58;17.05;;;8.00;99.90;;;;;;5071856;28;20488;-68
2023/12/09 03:15:40;;;;;;;32.45;14.90;;;8.00;99.90;;;;;;5071621;28;20048;-68
2023/12/09 03:18:07;;;;;;;33.20;15.68;;;8.10;99.90;;;;;;5071423;28;20048;-69
2023/12/09 03:20:33;;;;;;;36.40;14.63;;;8.10;99.90;;;;;;5072029;28;20044;-69
2023/12/09 03:23:00;;;;;;;36.92;15.02;;;8.00;99.90;;;;;;5073046;28;20045;-68
2023/12/09 03:25:27;;;;;;;38.38;15.23;;;8.00;99.90;;;;;;5069522;28;20053;-68
2023/12/09 03:27:54;;;;;;;40.35;15.27;;;8.00;99.90;;;;;;5071751;28;20102;-68
2023/12/09 03:30:22;;;;;;;41.03;16.10;;;8.00;99.90;;;;;;5072114;28;20101;-68
2023/12/09 03:32:49;;;;;;;29.77;13.95;;;8.10;99.90;;;;;;5070180;28;20060;-68
2023/12/09 03:35:16;;;;;;;36.97;13.68;;;7.90;99.90;;;;;;5071446;28;20085;-68
2023/12/09 03:37:43;;;;;;;36.30;12.85;;;7.90;99.90;;;;;;5072603;28;20045;-68
2023/12/09 03:40:11;;;;;;;29.77;13.48;;;7.90;99.90;;;;;;5071067;28;20381;-68
2023/12/09 03:42:38;;;;;;;29.92;13.13;;;7.80;99.90;;;;;;5071558;28;20048;-68
2023/12/09 03:45:06;;;;;;;39.38;13.82;;;7.80;99.90;;;;;;5071678;28;20404;-68
2023/12/09 03:47:34;;;;;;;35.25;14.98;;;7.70;99.90;;;;;;5070804;28;20044;-68
2023/12/09 03:50:02;;;;;;;31.00;14.20;;;7.70;99.90;;;;;;5071419;28;20052;-68
2023/12/09 03:52:29;;;;;;;33.90;14.38;;;7.70;99.90;;;;;;5071344;28;20055;-68
2023/12/09 03:54:56;;;;;;;29.65;12.80;;;7.60;99.90;;;;;;5070543;28;20098;-68
2023/12/09 03:57:23;;;;;;;36.72;13.75;;;7.60;99.90;;;;;;5071271;28;20093;-69
2023/12/09 03:59:50;;;;;;;30.30;14.00;;;7.60;99.90;;;;;;5071393;28;20060;-69
2023/12/09 04:02:18;;;;;;;38.53;14.43;;;7.70;99.90;;;;;;5070638;28;20049;-68
2023/12/09 04:04:46;;;;;;;27.35;13.07;;;7.70;99.90;;;;;;5072307;28;20072;-68
2023/12/09 04:07:13;;;;;;;32.17;14.02;;;7.70;99.90;;;;;;5070532;28;20084;-68
2023/12/09 04:09:41;;;;;;;39.80;14.07;;;7.70;99.90;;;;;;5071065;28;20049;-68
2023/12/09 04:12:08;;;;;;;33.85;13.57;;;7.70;99.90;;;;;;5071024;28;20051;-68
2023/12/09 04:14:35;;;;;;;28.02;12.65;;;7.70;99.90;;;;;;5070566;28;20450;-68
2023/12/09 04:17:01;;;;;;;37.58;15.20;;;7.70;99.90;;;;;;5071083;28;20060;-68
2023/12/09 04:19:28;;;;;;;34.88;14.82;;;7.80;99.90;;;;;;5068534;28;20041;-68
2023/12/09 04:21:57;;;;;;;28.40;13.15;;;7.70;99.90;;;;;;5069989;28;21290;-68
2023/12/09 04:24:23;;;;;;;36.15;13.80;;;7.70;99.90;;;;;;5070719;28;20052;-68
2023/12/09 04:26:51;;;;;;;35.33;14.25;;;7.70;99.90;;;;;;5070549;28;20052;-68
2023/12/09 04:29:18;;;;;;;30.45;12.60;;;7.70;99.90;;;;;;5070091;28;20052;-68
2023/12/09 04:31:44;;;;;;;32.00;13.05;;;7.70;99.90;;;;;;5070579;28;20102;-68
2023/12/09 04:34:11;;;;;;;32.17;13.93;;;7.70;99.90;;;;;;5070460;28;20042;-68
2023/12/09 04:36:38;;;;;;;37.83;14.35;;;7.70;99.90;;;;;;5069998;28;20048;-69
2023/12/09 04:39:07;;;;;;;28.58;12.77;;;7.70;99.90;;;;;;5070679;28;20044;-68
2023/12/09 04:41:34;;;;;;;33.42;13.07;;;7.70;99.90;;;;;;5071616;28;20049;-68
2023/12/09 04:44:00;;;;;;;27.33;12.88;;;7.70;99.90;;;;;;5069203;28;20101;-68
2023/12/09 04:46:28;;;;;;;28.20;13.70;;;7.70;99.90;;;;;;5070694;28;20078;-69
2023/12/09 04:48:56;;;;;;;27.08;11.82;;;7.70;99.90;;;;;;5070519;28;20098;-68
2023/12/09 04:51:23;;;;;;;32.50;12.25;;;7.70;99.90;;;;;;5070159;28;20048;-69
2023/12/09 04:53:50;;;;;;;22.90;11.15;;;7.70;99.90;;;;;;5070004;28;20084;-69
2023/12/09 04:56:19;;;;;;;29.98;11.60;;;7.70;99.90;;;;;;5070094;28;20076;-69
2023/12/09 04:58:46;;;;;;;29.58;12.85;;;7.70;99.90;;;;;;5067991;28;20048;-69
2023/12/09 05:01:13;;;;;;;31.13;12.20;;;7.70;99.90;;;;;;5070595;28;20087;-69
2023/12/09 05:03:39;;;;;;;37.03;13.60;;;7.60;99.90;;;;;;5067727;28;20053;-69
2023/12/09 05:06:08;;;;;;;31.13;13.75;;;7.60;99.90;;;;;;5070532;28;20432;-69
2023/12/09 05:08:35;;;;;;;27.83;12.63;;;7.70;99.90;;;;;;5070479;28;20045;-69
2023/12/09 05:11:02;;;;;;;42.58;14.45;;;7.70;99.90;;;;;;5069994;28;20052;-69
2023/12/09 05:13:30;;;;;;;30.33;11.73;;;7.60;99.90;;;;;;5069958;28;20496;-69
2023/12/09 05:15:57;;;;;;;44.35;13.85;;;7.70;99.90;;;;;;5069419;28;20036;-69
2023/12/09 05:18:23;;;;;;;31.17;12.30;;;7.60;99.90;;;;;;5069531;28;20455;-69
2023/12/09 05:20:50;;;;;;;32.58;11.73;;;7.70;99.90;;;;;;5070502;28;20475;-68
2023/12/09 05:23:17;;;;;;;29.30;11.52;;;7.70;99.90;;;;;;5070221;28;20444;-68
2023/12/09 05:25:44;;;;;;;34.63;14.32;;;7.70;99.90;;;;;;5069428;28;20052;-69
2023/12/09 05:28:11;;;;;;;30.58;12.20;;;7.60;99.90;;;;;;5069924;28;20057;-68
2023/12/09 05:30:41;;;;;;;35.90;11.50;;;7.70;99.90;;;;;;5070219;28;20562;-68
2023/12/09 05:33:08;;;;;;;23.23;11.83;;;7.60;99.90;;;;;;5069684;28;20127;-68
2023/12/09 05:35:35;;;;;;;24.55;10.15;;;7.60;99.90;;;;;;5068184;28;20824;-69
2023/12/09 05:38:02;;;;;;;35.03;12.05;;;7.60;99.90;;;;;;5073887;28;20113;-69
2023/12/09 05:40:29;;;;;;;33.53;12.15;;;7.60;99.90;;;;;;5073517;28;20185;-69
2023/12/09 05:42:56;;;;;;;35.88;11.68;;;7.70;99.90;;;;;;5073903;28;20452;-69
2023/12/09 05:45:23;;;;;;;30.95;12.30;;;7.70;99.90;;;;;;5073961;28;20451;-68
2023/12/09 05:47:51;;;;;;;32.10;11.73;;;7.70;99.90;;;;;;5073203;28;20470;-69
2023/12/09 05:50:18;;;;;;;28.40;11.75;;;7.70;99.90;;;;;;5073493;28;20044;-67
2023/12/09 05:52:45;;;;;;;30.58;11.05;;;7.70;99.90;;;;;;5073283;28;20044;-68
2023/12/09 05:55:16;;;;;;;35.92;10.85;;;7.70;99.90;;;;;;5074609;28;20493;-69
2023/12/09 05:57:42;;;;;;;;;;;7.70;99.90;;;;;;5073644;28;20102;-68
2023/12/09 06:00:11;;;;;;;25.80;10.55;;;7.70;99.90;;;;;;5072732;28;19924;-68
2023/12/09 06:02:39;;;;;;;30.40;10.88;;;7.70;99.90;;;;;;5072511;28;20044;-68
2023/12/09 06:05:09;;;;;;;27.38;10.65;;;7.70;99.90;;;;;;5073175;28;20113;-69
2023/12/09 06:07:36;;;;;;;32.80;11.55;;;7.60;99.90;;;;;;5021415;28;20143;-68
2023/12/09 06:10:03;;;;;;;39.70;11.68;;;7.70;99.90;;;;;;5073383;28;20122;-69
2023/12/09 06:12:30;;;;;;;30.10;12.00;;;7.60;99.90;;;;;;5073501;28;20060;-68
2023/12/09 06:14:57;;;;;;;30.40;10.95;;;7.60;99.90;;;;;;5072858;28;20052;-67
2023/12/09 06:17:24;;;;;;;24.40;10.43;;;7.60;99.90;;;;;;5073303;28;20094;-68
2023/12/09 06:19:51;;;;;;;28.70;11.68;;;7.50;99.90;;;;;;5072700;28;20052;-68
2023/12/09 06:22:19;;;;;;;29.98;10.45;;;7.60;99.90;;;;;;5072798;28;20122;-68
2023/12/09 06:24:46;;;;;;;27.58;10.50;;;7.60;99.90;;;;;;5073104;28;20060;-68
2023/12/09 06:27:13;;;;;;;37.15;11.82;;;7.50;99.90;;;;;;5073276;28;20040;-69
2023/12/09 06:29:40;;;;;;;26.20;10.80;;;7.60;99.90;;;;;;5072322;28;20453;-69
2023/12/09 06:32:07;;;;;;;32.05;10.85;;;7.60;99.90;;;;;;5072820;28;20044;-69
2023/12/09 06:34:34;;;;;;;26.75;10.80;;;7.60;99.90;;;;;;5073824;28;20048;-69
2023/12/09 06:37:00;;;;;;;26.40;10.38;;;7.60;99.90;;;;;;5072288;28;20049;-69
2023/12/09 06:39:29;;;;;;;30.50;9.55;;;7.60;99.90;;;;;;5071653;28;20044;-69
2023/12/09 06:41:55;;;;;;;30.85;11.20;;;7.60;99.90;;;;;;5072008;28;20053;-68
2023/12/09 06:44:22;;;;;;;25.02;10.85;;;7.50;99.90;;;;;;5073851;28;20044;-68
2023/12/09 06:46:49;;;;;;;29.52;10.65;;;7.50;99.90;;;;;;5072416;28;20508;-68
2023/12/09 06:49:17;;;;;;;23.65;9.88;;;7.50;99.90;;;;;;5072114;28;20099;-68
2023/12/09 06:51:44;;;;;;;21.73;9.60;;;7.60;99.90;;;;;;5073521;28;20581;-68
2023/12/09 06:54:11;;;;;;;27.60;8.93;;;7.50;99.90;;;;;;5072153;28;20393;-68
2023/12/09 06:56:39;;;;;;;21.42;9.98;;;7.50;99.90;;;;;;5071951;28;20060;-68
2023/12/09 06:59:06;;;;;;;24.90;11.02;;;7.50;99.90;;;;;;5072070;28;20044;-68
2023/12/09 07:01:33;;;;;;;25.10;10.05;;;7.50;99.90;;;;;;5072231;28;20049;-68
2023/12/09 07:04:00;;;;;;;25.35;10.20;;;7.50;99.90;;;;;;5072778;28;20492;-68
2023/12/09 07:06:28;;;;;;;24.85;10.05;;;7.40;99.90;;;;;;5072542;28;20055;-69
2023/12/09 07:08:57;;;;;;;24.98;9.18;;;7.40;99.90;;;;;;5072067;28;20120;-68
2023/12/09 07:11:24;;;;;;;27.27;9.55;;;7.40;99.90;;;;;;5071723;28;20044;-68
2023/12/09 07:13:52;;;;;;;33.50;9.30;;;7.40;99.90;;;;;;5071706;28;20059;-68
2023/12/09 07:16:19;;;;;;;22.27;9.10;;;7.40;99.90;;;;;;5070265;28;20077;-69
2023/12/09 07:18:48;;;;;;;31.63;10.02;;;7.50;99.90;;;;;;5063975;28;20093;-69
2023/12/09 07:21:15;;;;;;;25.00;9.65;;;7.40;99.90;;;;;;5069898;28;20052;-69
2023/12/09 07:23:42;;;;;;;18.85;9.30;;;7.40;99.90;;;;;;5070616;28;20053;-69
2023/12/09 07:26:09;;;;;;;20.73;8.93;;;7.40;99.90;;;;;;5070387;28;20163;-69
2023/12/09 07:28:36;;;;;;;21.42;9.90;;;7.40;99.90;;;;;;5070085;28;20390;-69
2023/12/09 07:31:05;;;;;;;24.90;10.52;;;7.40;99.90;;;;;;5070581;28;20052;-69
2023/12/09 07:33:32;;;;;;;26.38;10.15;;;7.30;99.90;;;;;;5071253;28;20121;-69
2023/12/09 07:35:59;;;;;;;26.70;9.48;;;7.40;99.90;;;;;;5071077;28;20055;-70
2023/12/09 07:38:26;;;;;;;22.75;9.52;;;7.60;99.90;;;;;;5068846;28;20094;-69
2023/12/09 07:40:53;;;;;;;24.83;10.32;;;7.30;99.90;;;;;;5071045;28;20140;-70
2023/12/09 07:43:19;;;;;;;27.85;9.88;;;7.30;99.90;;;;;;5070917;28;20040;-70
2023/12/09 07:45:46;;;;;;;21.92;8.77;;;7.30;99.90;;;;;;5070135;28;20052;-69
2023/12/09 07:48:15;;;;;;;26.45;9.82;;;7.20;99.90;;;;;;5071100;28;20045;-70
2023/12/09 07:50:42;;;;;;;26.55;9.57;;;7.30;99.90;;;;;;5070129;28;20175;-70
2023/12/09 07:53:09;;;;;;;22.45;9.73;;;7.20;99.90;;;;;;5070057;28;20060;-69
2023/12/09 07:55:36;;;;;;;21.33;8.68;;;7.20;99.90;;;;;;5070556;28;20056;-68
2023/12/09 07:58:03;;;;;;;27.77;11.13;;;7.20;99.90;;;;;;5068224;28;20102;-68
2023/12/09 08:00:31;;;;;;;25.55;8.98;;;7.30;99.90;;;;;;5069251;28;20488;-68
2023/12/09 08:03:04;;;;;;;25.67;8.82;;;7.20;99.90;;;;;;5102636;28;20385;-69
2023/12/09 08:05:32;;;;;;;32.20;8.93;;;7.10;99.90;;;;;;5070750;28;20176;-70
2023/12/09 08:07:59;;;;;;;19.83;8.52;;;7.10;99.90;;;;;;5069865;28;20451;-70
2023/12/09 08:10:26;;;;;;;23.48;8.27;;;7.10;99.90;;;;;;5102036;28;20052;-68
2023/12/09 08:12:53;;;;;;;27.90;8.35;;;7.20;99.90;;;;;;5070237;28;20086;-68
2023/12/09 08:15:19;;;;;;;25.95;9.73;;;7.20;99.90;;;;;;5069731;28;20044;-69
2023/12/09 08:17:46;;;;;;;18.80;8.63;;;7.10;99.90;;;;;;5070189;28;20045;-69
2023/12/09 08:20:13;;;;;;;22.05;9.48;;;7.10;99.90;;;;;;5101545;28;20093;-68
2023/12/09 08:22:41;;;;;;;18.75;8.75;;;7.10;99.90;;;;;;5070001;28;20052;-69
2023/12/09 08:25:10;;;;;;;20.45;8.50;;;7.10;99.90;;;;;;5069200;28;20049;-70
2023/12/09 08:27:38;;;;;;;29.98;8.73;;;7.10;99.90;;;;;;5069096;28;20562;-70
2023/12/09 08:30:10;;;;;;;25.05;8.38;;;7.10;99.90;;;;;;5066272;28;20111;-70
2023/12/09 08:32:38;;;;;;;23.52;8.98;;;7.20;99.90;;;;;;5067816;28;20055;-69
2023/12/09 08:35:06;;;;;;;24.63;8.40;;;7.20;99.90;;;;;;5063502;28;20075;-70
2023/12/09 08:37:32;;;;;;;31.13;8.02;;;7.20;99.90;;;;;;5064848;28;20051;-70
2023/12/09 08:40:09;;;;;;;22.85;8.45;;;7.20;99.90;;;;;;5068999;28;20109;-70
2023/12/09 08:42:38;;;;;;;22.00;7.75;;;7.20;99.90;;;;;;5102208;28;20121;-70
2023/12/09 08:45:06;;;;;;;20.48;8.82;;;7.20;99.90;;;;;;5068245;28;20492;-70
2023/12/09 08:47:32;;;;;;;25.00;7.25;;;7.10;99.90;;;;;;5068228;28;20049;-70
2023/12/09 08:49:59;;;;;;;20.45;7.10;;;7.20;99.90;;;;;;5068646;28;20048;-69
2023/12/09 08:52:26;;;;;;;20.50;7.15;;;7.30;99.90;;;;;;5068451;28;20040;-70
2023/12/09 08:54:53;;;;;;;20.98;6.55;;;7.20;99.90;;;;;;5068548;28;20064;-70
2023/12/09 08:57:21;;;;;;;23.13;7.07;;;7.20;99.90;;;;;;5102711;28;20060;-69
2023/12/09 08:59:48;;;;;;;21.98;8.13;;;7.20;99.90;;;;;;5065398;28;20048;-70
2023/12/09 09:02:15;;;;;;;15.68;6.47;;;7.20;99.90;;;;;;5069355;28;20052;-70
2023/12/09 09:04:42;;;;;;;22.40;7.22;;;7.20;99.90;;;;;;5068119;28;20122;-69
2023/12/09 09:07:10;;;;;;;17.60;6.93;;;7.30;99.90;;;;;;5066709;28;20056;-69
2023/12/09 09:09:39;;;;;;;16.15;6.32;;;7.20;99.90;;;;;;5099815;28;20516;-70
2023/12/09 09:12:06;;;;;;;22.67;7.05;;;7.20;99.90;;;;;;5105624;28;20084;-71
2023/12/09 09:14:36;;;;;;;18.10;6.40;;;7.20;99.90;;;;;;5072830;28;20400;-70
2023/12/09 09:17:03;;;;;;;18.23;6.32;;;7.30;99.90;;;;;;5072226;28;20054;-69
2023/12/09 09:19:30;;;;;;;23.70;7.63;;;7.20;99.90;;;;;;5071685;28;20130;-70
2023/12/09 09:21:57;;;;;;;16.08;5.90;;;7.20;99.90;;;;;;5072700;28;20063;-70
2023/12/09 09:24:24;;;;;;;16.95;6.50;;;7.30;99.90;;;;;;5072012;28;20105;-69
2023/12/09 09:26:50;;;;;;;15.77;6.00;;;7.30;99.90;;;;;;5073908;28;20094;-70
2023/12/09 09:29:17;;;;;;;18.60;6.15;;;7.30;99.90;;;;;;5072240;28;20044;-71
2023/12/09 09:31:45;;;;;;;18.38;5.55;;;7.30;99.90;;;;;;5071219;28;20483;-69
2023/12/09 09:34:12;;;;;;;14.63;6.03;;;7.30;99.90;;;;;;5072756;28;20128;-70
2023/12/09 09:36:39;;;;;;;17.80;5.90;;;7.40;99.90;;;;;;5071970;28;20056;-69
2023/12/09 09:39:06;;;;;;;17.02;5.10;;;7.30;99.90;;;;;;5070594;28;20053;-71
2023/12/09 09:41:39;;;;;;;13.25;5.20;;;7.40;99.90;;;;;;5071630;28;20061;-72
2023/12/09 09:44:10;;;;;;;14.57;5.70;;;7.40;99.90;;;;;;5072634;28;20484;-72
2023/12/09 09:46:38;;;;;;;;;;;7.50;99.90;;;;;;5072505;28;20125;-71
2023/12/09 09:49:10;;;;;;;18.48;5.03;;;7.60;99.90;;;;;;5072432;28;19920;-70
2023/12/09 09:51:38;;;;;;;13.00;4.82;;;7.50;99.90;;;;;;5071114;28;20496;-70
2023/12/09 09:54:11;;;;;;;13.65;4.70;;;7.50;99.90;;;;;;5072750;28;20048;-71
2023/12/09 09:56:38;;;;;;;13.63;4.47;;;7.50;99.90;;;;;;5071547;28;20098;-70
2023/12/09 09:59:06;;;;;;;18.52;5.00;;;7.50;99.90;;;;;;5071457;28;20060;-71
2023/12/09 10:01:34;;;;;;;14.70;4.65;;;7.50;99.90;;;;;;5071771;28;20124;-71
2023/12/09 10:04:01;;;;;;;14.70;5.75;;;7.50;99.90;;;;;;5071539;28;20052;-71
2023/12/09 10:06:30;;;;;;;11.27;5.32;;;7.50;99.90;;;;;;5069172;28;20082;-71
2023/12/09 10:08:58;;;;;;;20.30;5.40;;;7.50;99.90;;;;;;5072033;28;20048;-71
2023/12/09 10:11:25;;;;;;;13.60;5.05;;;7.50;99.90;;;;;;5071453;28;20037;-71
2023/12/09 10:13:52;;;;;;;16.88;4.88;;;7.50;99.90;;;;;;5069304;28;20106;-70
2023/12/09 10:16:19;;;;;;;10.82;4.68;;;7.50;99.90;;;;;;5071097;28;20170;-71
2023/12/09 10:18:47;;;;;;;12.52;4.65;;;7.50;99.90;;;;;;5071783;28;20056;-70
2023/12/09 10:21:14;;;;;;;11.43;4.40;;;7.50;99.90;;;;;;5070646;28;20040;-70
2023/12/09 10:23:44;;;;;;;13.32;4.60;;;7.50;99.90;;;;;;5070088;28;20105;-71
2023/12/09 10:26:12;;;;;;;15.35;3.92;;;7.50;99.90;;;;;;5071787;28;20049;-70
2023/12/09 10:28:39;;;;;;;16.90;5.55;;;7.60;99.90;;;;;;5072156;28;20045;-71
2023/12/09 10:31:09;;;;;;;8.23;4.20;;;7.70;99.90;;;;;;5073036;28;20067;-71
2023/12/09 10:33:36;;;;;;;13.50;4.88;;;7.60;99.90;;;;;;5071944;28;20044;-71
2023/12/09 10:36:06;;;;;;;17.40;4.90;;;7.70;99.90;;;;;;5070596;28;20109;-71
2023/12/09 10:38:33;;;;;;;12.05;3.92;;;7.70;99.90;;;;;;5072616;28;20455;-70
2023/12/09 10:41:01;;;;;;;14.90;4.35;;;7.70;99.90;;;;;;5072351;28;20455;-71
2023/12/09 10:43:28;;;;;;;11.52;4.18;;;7.80;99.90;;;;;;5070651;28;20048;-71
2023/12/09 10:45:55;;;;;;;13.32;4.20;;;7.90;99.90;;;;;;5072457;28;20454;-71
2023/12/09 10:48:21;;;;;;;14.07;4.38;;;8.00;99.90;;;;;;5072162;28;20048;-70
2023/12/09 10:50:48;;;;;;;8.63;3.92;;;8.10;99.90;;;;;;5072245;28;20094;-70
2023/12/09 10:53:15;;;;;;;11.95;3.80;;;8.10;99.90;;;;;;5072106;28;20106;-70
2023/12/09 10:55:42;;;;;;;13.05;3.78;;;8.20;99.90;;;;;;5071585;28;20048;-70
2023/12/09 10:58:12;;;;;;;9.93;3.38;;;8.40;99.90;;;;;;5072300;28;20131;-71
2023/12/09 11:00:41;;;;;;;15.95;4.30;;;8.30;99.90;;;;;;5072283;28;20040;-71
2023/12/09 11:03:09;;;;;;;20.00;3.92;;;8.30;99.90;;;;;;5069615;28;20048;-71
2023/12/09 11:05:51;;;;;;;13.98;3.85;;;8.30;99.90;;;;;;5072140;28;20145;-71
2023/12/09 11:08:18;;;;;;;11.73;3.20;;;8.30;99.90;;;;;;5072044;28;20083;-71
2023/12/09 11:10:46;;;;;;;6.25;3.15;;;8.30;99.90;;;;;;5071632;28;20052;-71
2023/12/09 11:13:14;;;;;;;11.60;3.17;;;8.20;99.90;;;;;;5072099;28;20054;-71
2023/12/09 11:15:41;;;;;;;12.07;2.95;;;8.20;99.90;;;;;;5072160;28;20052;-70
2023/12/09 11:18:09;;;;;;;8.93;3.03;;;8.20;99.90;;;;;;5071273;28;20060;-70
2023/12/09 11:20:39;;;;;;;10.48;3.20;;;8.10;99.90;;;;;;5071688;28;20041;-70
2023/12/09 11:23:10;;;;;;;19.75;4.28;;;8.10;99.90;;;;;;5069769;28;20117;-70
2023/12/09 11:25:40;;;;;;;8.60;3.17;;;8.10;99.90;;;;;;5070561;28;20452;-70
2023/12/09 11:28:06;;;;;;;9.05;3.28;;;8.10;99.90;;;;;;5069551;28;20401;-70
2023/12/09 11:30:36;;;;;;;10.55;3.38;;;8.10;99.90;;;;;;5070699;28;20408;-71
2023/12/09 11:33:04;;;;;;;11.00;2.67;;;8.00;99.90;;;;;;5070452;28;20083;-71
2023/12/09 11:35:33;;;;;;;11.60;3.95;;;8.10;99.90;;;;;;5070927;28;20060;-73
2023/12/09 11:38:01;;;;;;;16.65;4.18;;;8.10;99.90;;;;;;5070991;28;20122;-72
2023/12/09 11:40:29;;;;;;;9.45;3.00;;;8.00;99.90;;;;;;5070870;28;20086;-71
2023/12/09 11:42:58;;;;;;;9.02;3.05;;;8.00;99.90;;;;;;5060470;28;20052;-71
2023/12/09 11:45:27;;;;;;;11.13;3.40;;;8.00;99.90;;;;;;5064030;28;20381;-71
2023/12/09 11:47:55;;;;;;;9.68;2.70;;;8.00;99.90;;;;;;5102297;28;20059;-71
2023/12/09 11:50:22;;;;;;;10.52;3.15;;;8.00;99.90;;;;;;5103884;28;20075;-71
2023/12/09 11:52:49;;;;;;;18.42;3.47;;;8.10;99.90;;;;;;5063649;28;20047;-71
2023/12/09 11:55:17;;;;;;;9.68;3.05;;;8.10;99.90;;;;;;5067635;28;20395;-71
2023/12/09 11:57:44;;;;;;;11.27;3.22;;;8.10;99.90;;;;;;5066517;28;20102;-71
2023/12/09 12:00:13;;;;;;;9.00;3.15;;;8.10;99.90;;;;;;5067066;28;20101;-71
2023/12/09 12:02:42;;;;;;;9.32;3.60;;;8.10;99.90;;;;;;5069437;28;20125;-71
2023/12/09 12:05:12;;;;;;;10.35;3.15;;;8.20;99.90;;;;;;5070118;28;20140;-71
2023/12/09 12:07:39;;;;;;;14.35;4.72;;;8.10;99.90;;;;;;5068788;28;20081;-71
2023/12/09 12:10:08;;;;;;;12.80;3.38;;;8.10;99.90;;;;;;5070575;28;20500;-71
2023/12/09 12:12:35;;;;;;;10.45;3.35;;;8.10;99.90;;;;;;5068799;28;20052;-71
2023/12/09 12:15:02;;;;;;;13.48;4.32;;;8.10;99.90;;;;;;5069227;28;20059;-71
2023/12/09 12:17:38;;;;;;;13.68;3.67;;;8.10;99.90;;;;;;5069593;28;20447;-71
2023/12/09 12:20:06;;;;;;;12.77;3.47;;;8.10;99.90;;;;;;5067794;28;20131;-70
2023/12/09 12:22:35;;;;;;;11.50;2.92;;;8.10;99.90;;;;;;5067476;28;20203;-71
2023/12/09 12:25:03;;;;;;;8.73;3.35;;;8.10;99.90;;;;;;5070929;28;20044;-72
2023/12/09 12:27:34;;;;;;;12.77;3.17;;;8.10;99.90;;;;;;5068607;28;20076;-71
2023/12/09 12:30:02;;;;;;;;;;;8.10;99.90;;;;;;5069622;28;20052;-71
2023/12/09 12:32:29;;;;;;;7.13;2.60;;;8.10;99.90;;;;;;5069245;28;19936;-70
2023/12/09 12:34:56;;;;;;;9.70;3.22;;;8.10;99.90;;;;;;5068761;28;20386;-69
2023/12/09 12:37:23;;;;;;;9.65;3.13;;;8.10;99.90;;;;;;5069127;28;20045;-69
2023/12/09 12:39:51;;;;;;;9.63;3.13;;;8.10;99.90;;;;;;5069483;28;20045;-69
2023/12/09 12:42:19;;;;;;;10.70;2.80;;;8.10;99.90;;;;;;5067086;28;20056;-70
2023/12/09 12:44:47;;;;;;;7.63;3.45;;;8.10;99.90;;;;;;5068999;28;20394;-69